Terminal Aerodrome Forecast
Issued by NWS Twin Cities, MN

Home | Current Version | Previous Version | Graphics & Text | Print | Product List | Glossary On
Versions: 1 2 3 4 5 6 7 8 9 10 11 12
962
FTUS43 KMPX 200520
TAFEAU
TAF
KEAU 200520Z 2006/2106 VRB03KT P6SM BKN200
     FM201300 01007KT P6SM BKN150
     FM202200 34006KT P6SM FEW200=

USA.gov is the U.S. government's official web portal to all federal, state and local government web resources and services.